Time;durP1;ratioP1;P1;durP2;ratioP2;P2;SDS_P1;SDS_P2;PMS_P1;PMS_P2;Temp;Humidity;BMP_temperature;BMP_pressure;BME280_temperature;BME280_humidity;BME280_pressure;Samples;Min_cycle;Max_cycle;Signal;HPM_P1;HPM_P2
2021/10/23 00:00:04;;;;;;;2.85;1.40;;;;;;;22.33;36.30;102009.34;5072215;28;20032;-75
2021/10/23 00:02:30;;;;;;;2.92;1.52;;;;;;;22.28;36.22;102009.63;5072193;28;20025;-76
2021/10/23 00:04:56;;;;;;;4.85;1.92;;;;;;;22.29;36.02;102003.72;5072161;28;20028;-76
2021/10/23 00:07:21;;;;;;;3.10;1.52;;;;;;;22.30;35.91;102002.53;5072163;28;20027;-76
2021/10/23 00:09:47;;;;;;;3.25;1.35;;;;;;;22.31;36.12;102006.13;5072048;28;20490;-77
2021/10/23 00:12:13;;;;;;;2.72;1.40;;;;;;;22.19;36.23;102000.66;5072128;28;20029;-75
2021/10/23 00:14:38;;;;;;;1.92;1.30;;;;;;;22.32;36.04;102002.16;5072274;28;20100;-75
2021/10/23 00:17:04;;;;;;;3.53;1.33;;;;;;;22.32;35.82;101996.59;5074320;28;20090;-76
2021/10/23 00:19:30;;;;;;;9.35;1.75;;;;;;;22.34;35.83;101999.81;5075962;28;20146;-76
2021/10/23 00:21:56;;;;;;;1.75;0.90;;;;;;;22.34;35.77;101997.03;5075726;28;20507;-76
2021/10/23 00:24:22;;;;;;;3.40;1.58;;;;;;;22.35;35.87;101988.31;5075704;28;20387;-76
2021/10/23 00:26:47;;;;;;;1.95;1.20;;;;;;;22.42;35.56;101984.88;5075656;28;20021;-75
2021/10/23 00:29:13;;;;;;;3.42;1.25;;;;;;;22.36;35.81;101981.56;5075382;28;20453;-76
2021/10/23 00:31:39;;;;;;;2.67;1.17;;;;;;;22.34;35.98;101971.97;5075655;28;20063;-77
2021/10/23 00:34:04;;;;;;;2.97;1.45;;;;;;;22.29;35.68;101973.09;5075509;28;20025;-76
2021/10/23 00:36:30;;;;;;;3.58;1.42;;;;;;;22.27;35.69;101969.84;5075484;28;20020;-76
2021/10/23 00:38:55;;;;;;;5.72;1.50;;;;;;;22.29;35.83;101964.72;5075404;28;20044;-75
2021/10/23 00:41:21;;;;;;;3.55;1.42;;;;;;;22.27;35.75;101961.47;5075439;28;20036;-76
2021/10/23 00:43:47;;;;;;;2.53;0.93;;;;;;;22.30;35.85;101965.53;5075433;28;20490;-76
2021/10/23 00:46:14;;;;;;;4.53;1.38;;;;;;;22.22;35.94;101959.00;5075295;28;20020;-76
2021/10/23 00:48:40;;;;;;;2.65;1.40;;;;;;;22.21;35.68;101962.13;5075362;28;20031;-76
2021/10/23 00:51:10;;;;;;;6.25;1.27;;;;;;;22.07;36.26;101952.25;5075221;28;20029;-76
2021/10/23 00:53:36;;;;;;;4.13;1.60;;;;;;;22.10;36.17;101959.09;5075220;28;20484;-76
2021/10/23 00:56:03;;;;;;;2.97;1.48;;;;;;;22.05;36.12;101954.59;5075238;28;20359;-76
2021/10/23 00:58:29;;;;;;;2.28;1.42;;;;;;;21.96;36.40;101959.53;5075061;28;20057;-76
2021/10/23 01:00:54;;;;;;;1.92;1.35;;;;;;;21.91;36.28;101953.44;5075146;28;20028;-76
2021/10/23 01:03:20;;;;;;;1.80;1.33;;;;;;;22.01;36.16;101959.28;5075048;28;20029;-76
2021/10/23 01:05:46;;;;;;;3.83;1.48;;;;;;;21.94;36.27;101953.53;5075057;28;20103;-76
2021/10/23 01:08:13;;;;;;;3.13;1.33;;;;;;;21.94;36.25;101939.63;5074956;28;20062;-76
2021/10/23 01:10:39;;;;;;;3.22;1.48;;;;;;;22.01;35.83;101947.34;5074834;28;20032;-76
2021/10/23 01:13:05;;;;;;;1.23;0.82;;;;;;;22.02;36.07;101937.81;5074847;28;20475;-76
2021/10/23 01:15:33;;;;;;;2.22;1.10;;;;;;;21.92;36.09;101933.63;5073535;28;20066;-76
2021/10/23 01:18:01;;;;;;;2.50;1.13;;;;;;;21.89;36.20;101931.53;5074759;28;20028;-76
2021/10/23 01:20:28;;;;;;;1.83;0.95;;;;;;;22.01;35.90;101933.41;5074767;28;20028;-76
2021/10/23 01:22:54;;;;;;;1.85;0.93;;;;;;;21.93;35.95;101929.66;5074704;28;20086;-76
2021/10/23 01:25:23;;;;;;;1.75;0.95;;;;;;;21.74;36.21;101927.63;5074690;28;20029;-76
2021/10/23 01:27:53;;;;;;;1.63;1.10;;;;;;;22.01;35.63;101927.84;5073158;28;20390;-76
2021/10/23 01:30:19;;;;;;;;;;;;;;;21.85;35.72;101923.13;5074889;28;20041;-76
2021/10/23 01:32:44;;;;;;;2.80;1.38;;;;;;;22.02;35.57;101921.91;5070454;28;20434;-76
2021/10/23 01:35:10;;;;;;;1.13;0.80;;;;;;;22.00;35.77;101924.28;5073889;28;20384;-76
2021/10/23 01:37:43;;;;;;;2.42;1.20;;;;;;;22.02;35.72;101926.69;5072899;28;20033;-76
2021/10/23 01:40:12;;;;;;;2.15;0.98;;;;;;;22.06;35.46;101916.44;5074260;28;20032;-76
2021/10/23 01:42:38;;;;;;;2.35;1.27;;;;;;;22.03;35.36;101912.41;5074226;28;20471;-76
2021/10/23 01:45:06;;;;;;;2.15;1.10;;;;;;;22.02;35.32;101907.19;5074178;28;20036;-76
2021/10/23 01:47:31;;;;;;;2.20;1.20;;;;;;;21.96;35.65;101903.88;5074080;28;20114;-76
2021/10/23 01:49:57;;;;;;;2.80;1.10;;;;;;;21.99;35.47;101899.56;5073983;28;20107;-76
2021/10/23 01:52:23;;;;;;;1.52;0.93;;;;;;;21.77;35.89;101895.50;5074052;28;20028;-75
2021/10/23 01:54:48;;;;;;;1.88;0.98;;;;;;;21.80;35.79;101880.88;5072692;28;20050;-76
2021/10/23 01:57:14;;;;;;;2.13;1.00;;;;;;;21.78;35.80;101883.19;5073992;28;20028;-76
2021/10/23 01:59:40;;;;;;;2.85;0.93;;;;;;;21.79;35.75;101882.84;5073925;28;20029;-76
2021/10/23 02:02:05;;;;;;;1.17;0.82;;;;;;;21.83;35.59;101885.69;5073903;28;20383;-76
2021/10/23 02:04:31;;;;;;;1.23;0.95;;;;;;;21.83;35.56;101880.13;5073797;28;20024;-76
2021/10/23 02:06:57;;;;;;;1.83;0.82;;;;;;;21.88;35.47;101877.06;5073800;28;20099;-76
2021/10/23 02:09:23;;;;;;;1.40;0.77;;;;;;;21.80;35.64;101875.28;5073626;28;20569;-76
2021/10/23 02:11:49;;;;;;;1.58;1.08;;;;;;;22.03;35.24;101875.41;5073681;28;20021;-76
2021/10/23 02:14:14;;;;;;;3.33;0.98;;;;;;;21.82;35.47;101864.59;5073607;28;20039;-76
2021/10/23 02:16:41;;;;;;;1.40;0.88;;;;;;;21.83;35.38;101863.44;5073621;28;20067;-76
2021/10/23 02:19:06;;;;;;;2.55;1.42;;;;;;;21.82;35.20;101859.03;5073550;28;20028;-76
2021/10/23 02:21:32;;;;;;;1.92;0.95;;;;;;;21.78;35.31;101855.38;5073412;28;20395;-76
2021/10/23 02:23:57;;;;;;;3.33;0.93;;;;;;;21.72;35.52;101854.03;5073480;28;20075;-75
2021/10/23 02:26:23;;;;;;;4.40;1.00;;;;;;;21.69;35.39;101851.97;5073394;28;20017;-76
2021/10/23 02:28:49;;;;;;;1.90;0.80;;;;;;;21.69;35.49;101847.25;5073153;28;20021;-75
2021/10/23 02:31:14;;;;;;;2.00;0.98;;;;;;;21.79;35.37;101852.25;5073209;28;20387;-76
2021/10/23 02:33:40;;;;;;;2.50;1.23;;;;;;;21.78;35.30;101844.25;5073258;28;20036;-75
2021/10/23 02:36:06;;;;;;;1.08;0.75;;;;;;;21.70;35.50;101843.28;5071937;28;20112;-76
2021/10/23 02:38:32;;;;;;;1.65;0.90;;;;;;;21.67;35.37;101844.00;5072812;28;20046;-76
2021/10/23 02:40:57;;;;;;;4.53;2.35;;;;;;;21.64;35.42;101836.38;5073048;28;20029;-76
2021/10/23 02:43:24;;;;;;;1.70;0.90;;;;;;;21.64;35.48;101841.94;5073111;28;20020;-76
2021/10/23 02:45:50;;;;;;;3.38;1.13;;;;;;;21.60;35.38;101836.28;5073148;28;20055;-76
2021/10/23 02:48:15;;;;;;;1.00;0.82;;;;;;;21.64;35.54;101827.25;5073041;28;20028;-76
2021/10/23 02:50:41;;;;;;;2.30;0.95;;;;;;;21.71;35.41;101821.84;5072873;28;20040;-76
2021/10/23 02:53:07;;;;;;;1.58;1.00;;;;;;;21.64;35.38;101821.69;5072822;28;20155;-76
2021/10/23 02:55:33;;;;;;;1.63;0.75;;;;;;;21.70;35.46;101814.66;5072891;28;20024;-76
2021/10/23 02:57:58;;;;;;;1.52;0.93;;;;;;;21.69;35.28;101819.44;5072670;28;20082;-76
2021/10/23 03:00:24;;;;;;;2.05;0.80;;;;;;;21.60;35.43;101807.69;5072861;28;20486;-76
2021/10/23 03:02:50;;;;;;;4.70;1.45;;;;;;;21.55;35.40;101807.97;5072837;28;20027;-76
2021/10/23 03:05:17;;;;;;;1.92;0.88;;;;;;;21.49;35.67;101799.09;5072887;28;20104;-76
2021/10/23 03:07:42;;;;;;;3.05;0.90;;;;;;;21.46;35.49;101796.22;5072778;28;20020;-76
2021/10/23 03:10:08;;;;;;;2.45;1.10;;;;;;;21.38;35.85;101798.03;5072611;28;20036;-76
2021/10/23 03:12:35;;;;;;;2.35;0.80;;;;;;;21.43;35.71;101794.97;5072743;28;20036;-76
2021/10/23 03:15:00;;;;;;;1.25;0.80;;;;;;;21.32;35.88;101802.28;5072664;28;20060;-76
2021/10/23 03:17:26;;;;;;;2.88;0.73;;;;;;;21.35;35.85;101795.97;5072701;28;20059;-76
2021/10/23 03:19:52;;;;;;;2.50;1.15;;;;;;;21.39;35.86;101793.31;5072583;28;20037;-76
2021/10/23 03:22:18;;;;;;;1.77;1.23;;;;;;;21.37;35.68;101785.31;5072588;28;20025;-76
2021/10/23 03:24:43;;;;;;;2.05;0.95;;;;;;;21.38;35.62;101784.13;5072514;28;20032;-76
2021/10/23 03:27:09;;;;;;;2.00;0.80;;;;;;;21.07;36.33;101787.72;5072551;28;20065;-76
2021/10/23 03:29:35;;;;;;;1.27;0.80;;;;;;;21.20;35.96;101785.66;5072252;28;20484;-76
2021/10/23 03:32:00;;;;;;;2.40;0.73;;;;;;;21.10;36.35;101781.47;5072505;28;20024;-76
2021/10/23 03:34:26;;;;;;;3.30;0.93;;;;;;;21.19;36.08;101781.28;5072558;28;20052;-76
2021/10/23 03:36:52;;;;;;;1.50;0.73;;;;;;;21.23;35.95;101782.16;5072547;28;20029;-76
2021/10/23 03:39:17;;;;;;;0.63;0.50;;;;;;;21.21;36.07;101778.94;5072413;28;20372;-76
2021/10/23 03:41:43;;;;;;;2.38;0.70;;;;;;;21.12;36.18;101775.53;5072454;28;20074;-76
2021/10/23 03:44:09;;;;;;;0.82;0.57;;;;;;;21.10;36.23;101769.53;5072406;28;20478;-76
2021/10/23 03:46:34;;;;;;;1.00;0.73;;;;;;;21.16;36.36;101762.53;5072380;28;20043;-76
2021/10/23 03:49:00;;;;;;;1.17;0.63;;;;;;;21.20;36.19;101757.88;5072247;28;20133;-76
2021/10/23 03:51:26;;;;;;;2.55;0.60;;;;;;;21.29;36.17;101762.09;5073738;28;20394;-76
2021/10/23 03:53:52;;;;;;;0.50;0.43;;;;;;;21.27;36.13;101749.69;5076323;28;20031;-76
2021/10/23 03:56:18;;;;;;;1.30;0.57;;;;;;;21.12;36.50;101747.75;5076260;28;20066;-76
2021/10/23 03:58:44;;;;;;;1.45;0.40;;;;;;;21.03;36.80;101740.41;5076286;28;20040;-76
2021/10/23 04:01:09;;;;;;;1.65;0.38;;;;;;;21.10;36.64;101739.78;5076269;28;20063;-76
2021/10/23 04:03:35;;;;;;;2.78;1.05;;;;;;;21.03;37.07;101734.03;5076154;28;20059;-76
2021/10/23 04:06:00;;;;;;;2.00;0.47;;;;;;;21.03;37.04;101737.63;5076070;28;20059;-76
2021/10/23 04:08:26;;;;;;;3.83;0.65;;;;;;;21.18;36.93;101735.19;5076050;28;20029;-76
2021/10/23 04:10:51;;;;;;;3.30;0.82;;;;;;;21.13;37.08;101730.72;5075973;28;20467;-76
2021/10/23 04:13:17;;;;;;;0.38;0.38;;;;;;;21.13;36.97;101738.25;5075902;28;20432;-76
2021/10/23 04:15:43;;;;;;;2.78;0.70;;;;;;;21.15;37.27;101727.56;5075934;28;20025;-75
2021/10/23 04:18:08;;;;;;;0.98;0.52;;;;;;;21.31;36.97;101720.84;5075834;28;20035;-76
2021/10/23 04:20:34;;;;;;;0.63;0.43;;;;;;;21.23;37.04;101723.78;5075748;28;20113;-76
2021/10/23 04:23:00;;;;;;;1.08;0.40;;;;;;;21.35;36.75;101715.38;5075743;28;20077;-76
2021/10/23 04:25:25;;;;;;;1.23;0.55;;;;;;;21.20;37.30;101721.72;5075786;28;20040;-77
2021/10/23 04:27:51;;;;;;;0.60;0.43;;;;;;;21.24;37.08;101715.09;5075663;28;20033;-77
2021/10/23 04:30:17;;;;;;;0.65;0.65;;;;;;;21.21;37.35;101715.00;5074135;28;20055;-76
2021/10/23 04:32:43;;;;;;;2.75;0.65;;;;;;;21.15;37.20;101716.44;5075621;28;20028;-76
2021/10/23 04:35:09;;;;;;;1.63;0.60;;;;;;;21.14;37.21;101712.06;5075559;28;20077;-76
2021/10/23 04:37:35;;;;;;;2.45;0.60;;;;;;;21.16;37.08;101710.56;5075551;28;20102;-76
2021/10/23 04:40:01;;;;;;;1.27;0.60;;;;;;;21.05;37.19;101701.94;5075477;28;20036;-77
2021/10/23 04:42:26;;;;;;;3.25;1.00;;;;;;;20.97;37.27;101710.47;5075609;28;20035;-76
2021/10/23 04:44:52;;;;;;;2.25;0.90;;;;;;;20.94;37.23;101706.47;5075431;28;20029;-76
2021/10/23 04:47:18;;;;;;;1.83;0.90;;;;;;;20.86;37.27;101710.22;5075359;28;20040;-76
2021/10/23 04:49:44;;;;;;;2.80;0.88;;;;;;;20.90;37.23;101707.53;5075235;28;20043;-76
2021/10/23 04:52:10;;;;;;;1.65;0.70;;;;;;;20.85;37.44;101708.59;5075330;28;20516;-76
2021/10/23 04:54:35;;;;;;;2.83;0.75;;;;;;;20.86;37.59;101710.22;5075231;28;20085;-76
2021/10/23 04:57:01;;;;;;;1.35;0.80;;;;;;;20.64;38.08;101703.34;5075209;28;20470;-76
2021/10/23 04:59:27;;;;;;;3.03;0.90;;;;;;;20.83;37.78;101701.78;5075118;28;20082;-76
2021/10/23 05:01:52;;;;;;;0.77;0.63;;;;;;;21.02;37.28;101707.44;5074615;28;20039;-76
2021/10/23 05:04:18;;;;;;;5.43;1.20;;;;;;;21.09;37.31;101702.03;5074927;28;20038;-77
2021/10/23 05:06:44;;;;;;;1.20;0.70;;;;;;;21.06;37.33;101691.63;5075051;28;20070;-76
2021/10/23 05:09:09;;;;;;;1.80;0.65;;;;;;;20.97;37.47;101680.72;5074845;28;20492;-76
2021/10/23 05:11:35;;;;;;;4.47;1.27;;;;;;;20.93;37.64;101684.56;5074906;28;20029;-76
2021/10/23 05:14:00;;;;;;;1.85;0.63;;;;;;;21.00;37.52;101682.75;5074783;28;20033;-76
2021/10/23 05:16:26;;;;;;;5.65;1.10;;;;;;;20.92;37.64;101674.63;5074877;28;20024;-76
2021/10/23 05:18:52;;;;;;;0.47;0.47;;;;;;;20.99;37.53;101672.03;5074785;28;20124;-76
2021/10/23 05:21:18;;;;;;;2.28;0.75;;;;;;;21.06;37.38;101674.97;5074705;28;20039;-76
2021/10/23 05:23:46;;;;;;;0.93;0.50;;;;;;;20.94;37.80;101673.13;5074671;28;20379;-76
2021/10/23 05:26:12;;;;;;;1.13;0.63;;;;;;;20.94;37.64;101664.78;5074304;28;20451;-76
2021/10/23 05:28:38;;;;;;;1.52;0.70;;;;;;;20.95;37.73;101658.06;5072828;28;20086;-76
2021/10/23 05:31:04;;;;;;;2.20;0.52;;;;;;;20.90;37.88;101657.53;5067544;28;20053;-76
2021/10/23 05:33:30;;;;;;;1.15;0.50;;;;;;;20.87;37.77;101653.50;5054508;28;20032;-76
2021/10/23 05:35:55;;;;;;;0.95;0.50;;;;;;;20.71;38.29;101649.94;5054360;28;20472;-76
2021/10/23 05:38:21;;;;;;;1.33;0.55;;;;;;;20.68;38.41;101651.47;5054340;28;20037;-76
2021/10/23 05:40:47;;;;;;;2.25;0.73;;;;;;;20.80;38.12;101647.78;5054301;28;20060;-77
2021/10/23 05:43:12;;;;;;;0.63;0.50;;;;;;;20.82;38.08;101637.09;5054254;28;20025;-76
2021/10/23 05:45:38;;;;;;;0.98;0.45;;;;;;;20.80;38.17;101646.97;5054174;28;20031;-76
2021/10/23 05:48:04;;;;;;;3.47;0.98;;;;;;;20.62;38.70;101644.56;5054208;28;20033;-77
2021/10/23 05:50:29;;;;;;;1.80;0.82;;;;;;;20.71;38.63;101636.88;5054120;28;20526;-76
2021/10/23 05:52:55;;;;;;;0.70;0.30;;;;;;;20.75;38.60;101637.75;5054076;28;20380;-76
2021/10/23 05:55:21;;;;;;;0.57;0.40;;;;;;;20.72;38.63;101632.13;5054081;28;20029;-76
2021/10/23 05:57:46;;;;;;;1.73;0.60;;;;;;;20.70;38.66;101628.88;5053912;28;20108;-76
2021/10/23 06:00:13;;;;;;;2.78;0.60;;;;;;;20.76;38.77;101619.09;5053585;28;20035;-76
2021/10/23 06:02:39;;;;;;;0.93;0.50;;;;;;;20.80;38.73;101624.75;5058452;28;20487;-77
2021/10/23 06:05:06;;;;;;;0.50;0.50;;;;;;;20.78;38.83;101619.53;5068773;28;20032;-76
2021/10/23 06:07:36;;;;;;;1.10;0.52;;;;;;;20.58;39.26;101620.66;5073614;28;20033;-76
2021/10/23 06:10:04;;;;;;;0.30;0.30;;;;;;;20.52;39.50;101616.53;5073492;28;20067;-76
2021/10/23 06:12:30;;;;;;;1.30;0.60;;;;;;;20.72;39.15;101613.47;5061448;28;20032;-77
2021/10/23 06:14:57;;;;;;;0.80;0.40;;;;;;;20.81;38.98;101606.94;5060900;28;20050;-76
2021/10/23 06:17:23;;;;;;;1.33;0.43;;;;;;;20.74;39.10;101611.16;5063180;28;20020;-76
2021/10/23 06:19:49;;;;;;;1.23;0.50;;;;;;;20.82;38.99;101612.09;5063728;28;20036;-75
2021/10/23 06:22:14;;;;;;;2.92;0.30;;;;;;;20.76;39.13;101608.00;5073409;28;20027;-76
2021/10/23 06:24:40;;;;;;;1.70;0.80;;;;;;;20.76;39.12;101599.66;5073390;28;20029;-75
2021/10/23 06:27:06;;;;;;;2.78;0.50;;;;;;;20.84;38.84;101597.84;5073280;28;20104;-77
2021/10/23 06:29:32;;;;;;;1.27;0.60;;;;;;;20.92;38.87;101585.75;5073126;28;20037;-77
2021/10/23 06:31:58;;;;;;;0.95;0.40;;;;;;;20.82;39.12;101586.31;5073388;28;20044;-76
2021/10/23 06:34:24;;;;;;;2.00;0.50;;;;;;;20.88;39.08;101588.44;5072746;28;20046;-77
2021/10/23 06:36:50;;;;;;;2.55;0.93;;;;;;;20.75;39.48;101587.75;5072708;28;20025;-76
2021/10/23 06:39:16;;;;;;;1.58;0.50;;;;;;;20.71;39.64;101580.53;5072151;28;20103;-76
2021/10/23 06:41:42;;;;;;;2.70;0.65;;;;;;;20.91;39.11;101584.94;5072722;28;20059;-76
2021/10/23 06:44:09;;;;;;;0.82;0.55;;;;;;;20.94;39.07;101578.66;5072561;28;20044;-76
2021/10/23 06:46:38;;;;;;;4.43;0.60;;;;;;;20.96;38.86;101575.53;5071266;28;20028;-76
2021/10/23 06:49:06;;;;;;;1.10;0.47;;;;;;;20.91;39.13;101576.59;5072513;28;20025;-78
2021/10/23 06:51:32;;;;;;;2.42;0.70;;;;;;;20.89;39.25;101578.94;5072970;28;20062;-74
2021/10/23 06:53:59;;;;;;;2.58;0.90;;;;;;;20.96;39.04;101579.09;5072851;28;20020;-74
2021/10/23 06:56:26;;;;;;;3.75;0.85;;;;;;;20.82;39.31;101581.56;5072887;28;20051;-75
2021/10/23 06:58:52;;;;;;;4.45;1.25;;;;;;;20.96;39.08;101579.09;5072821;28;20070;-78
2021/10/23 07:01:19;;;;;;;8.98;1.08;;;;;;;20.83;39.17;101574.84;5072884;28;20025;-77
2021/10/23 07:03:44;;;;;;;3.28;1.00;;;;;;;21.02;38.90;101574.06;5072785;28;20059;-77
2021/10/23 07:06:10;;;;;;;4.05;0.70;;;;;;;20.76;39.41;101572.69;5072791;28;20060;-77
2021/10/23 07:08:36;;;;;;;2.40;0.95;;;;;;;20.75;39.61;101570.28;5072691;28;20418;-77
2021/10/23 07:11:01;;;;;;;2.55;1.13;;;;;;;20.85;39.28;101568.91;5072458;28;20028;-76
2021/10/23 07:13:27;;;;;;;3.83;0.75;;;;;;;20.64;39.81;101569.25;5072868;28;20035;-76
2021/10/23 07:15:52;;;;;;;2.30;0.70;;;;;;;20.70;39.69;101568.59;5072666;28;20493;-77
2021/10/23 07:18:18;;;;;;;4.00;1.20;;;;;;;20.74;39.62;101568.69;5072662;28;20035;-76
2021/10/23 07:20:44;;;;;;;5.22;1.25;;;;;;;20.81;39.38;101570.81;5072598;28;20025;-76
2021/10/23 07:23:09;;;;;;;2.22;1.00;;;;;;;20.87;39.30;101564.63;5072500;28;20029;-76
2021/10/23 07:25:35;;;;;;;1.60;0.65;;;;;;;20.94;39.21;101566.75;5067797;28;20614;-77
2021/10/23 07:28:01;;;;;;;3.05;0.90;;;;;;;20.99;39.03;101552.56;5062858;28;20441;-79
2021/10/23 07:30:27;;;;;;;5.00;1.15;;;;;;;20.96;39.14;101556.06;5071819;28;20052;-77
2021/10/23 07:32:52;;;;;;;4.10;1.20;;;;;;;21.02;38.99;101546.28;5072346;28;20051;-78
2021/10/23 07:35:19;;;;;;;2.00;0.70;;;;;;;21.07;38.81;101557.09;5071961;28;20482;-79
2021/10/23 07:37:45;;;;;;;4.75;1.20;;;;;;;21.04;38.93;101558.63;5072386;28;20024;-79
2021/10/23 07:40:14;;;;;;;6.75;1.20;;;;;;;21.03;39.16;101554.25;5072256;28;20036;-77
2021/10/23 07:42:41;;;;;;;7.35;1.42;;;;;;;20.87;39.44;101545.19;5068904;28;20039;-77
2021/10/23 07:45:10;;;;;;;6.00;0.98;;;;;;;21.05;39.14;101556.66;5072516;28;20035;-77
2021/10/23 07:47:38;;;;;;;1.58;0.63;;;;;;;21.14;39.08;101542.53;5072795;28;20024;-76
2021/10/23 07:50:05;;;;;;;4.15;0.90;;;;;;;21.12;39.13;101547.69;5072397;28;20383;-76
2021/10/23 07:52:31;;;;;;;2.70;1.20;;;;;;;21.11;39.10;101543.28;5072228;28;20486;-79
2021/10/23 07:54:57;;;;;;;4.05;1.70;;;;;;;21.21;38.81;101551.03;5072372;28;20028;-76
2021/10/23 07:57:26;;;;;;;4.65;1.02;;;;;;;21.22;39.00;101542.31;5071833;28;20036;-82
2021/10/23 07:59:52;;;;;;;3.47;1.02;;;;;;;21.36;38.72;101547.41;5072193;28;20536;-77
2021/10/23 08:02:18;;;;;;;5.28;1.42;;;;;;;21.35;38.75;101548.56;5072098;28;20017;-76
2021/10/23 08:04:44;;;;;;;14.23;1.55;;;;;;;21.45;38.34;101547.97;5072334;28;20024;-77
2021/10/23 08:07:09;;;;;;;6.15;1.23;;;;;;;21.54;38.33;101542.19;5068432;28;20080;-86
2021/10/23 08:09:36;;;;;;;6.78;1.38;;;;;;;21.35;38.77;101554.13;5067040;28;20020;-83
2021/10/23 08:12:03;;;;;;;4.15;0.90;;;;;;;21.45;38.89;101553.53;5051503;28;20048;-83
2021/10/23 08:14:29;;;;;;;5.55;1.63;;;;;;;21.54;38.45;101556.09;5052187;28;20017;-78
2021/10/23 08:16:56;;;;;;;5.07;1.30;;;;;;;21.77;38.18;101550.56;5052332;28;20075;-88
2021/10/23 08:19:22;;;;;;;4.57;1.65;;;;;;;21.63;38.34;101544.75;5052644;28;20033;-78
2021/10/23 08:21:48;;;;;;;5.65;2.35;;;;;;;21.77;38.20;101554.16;5052411;28;20021;-79
2021/10/23 08:24:14;;;;;;;6.50;1.55;;;;;;;21.76;38.06;101560.06;5052127;28;20053;-77
2021/10/23 08:26:41;;;;;;;7.25;2.47;;;;;;;21.74;38.08;101542.94;5051402;28;20060;-84
2021/10/23 08:29:08;;;;;;;8.32;1.75;;;;;;;21.86;38.12;101542.78;5051764;28;20045;-77
2021/10/23 08:31:34;;;;;;;6.43;1.33;;;;;;;21.85;38.18;101538.41;5051871;28;20025;-77
2021/10/23 08:34:00;;;;;;;4.20;1.10;;;;;;;21.89;38.07;101528.13;5051819;28;20037;-81
2021/10/23 08:36:27;;;;;;;9.63;1.60;;;;;;;22.02;38.01;101532.31;5051826;28;20063;-77
2021/10/23 08:38:54;;;;;;;5.18;2.47;;;;;;;21.91;38.09;101524.97;5055611;28;20017;-83
2021/10/23 08:41:20;;;;;;;8.25;1.98;;;;;;;22.08;37.69;101530.88;5070482;28;20474;-77
2021/10/23 08:43:46;;;;;;;6.05;1.70;;;;;;;21.93;38.06;101530.97;5076053;28;20062;-77
2021/10/23 08:46:21;;;;;;;4.50;0.90;;;;;;;21.97;37.93;101531.81;5076823;28;20107;-77
2021/10/23 08:48:52;;;;;;;3.78;1.42;;;;;;;22.08;37.59;101533.66;5076289;28;20020;-80
2021/10/23 08:51:20;;;;;;;6.53;1.17;;;;;;;22.07;37.40;101528.44;5073095;28;20032;-86
2021/10/23 08:53:51;;;;;;;13.93;1.67;;;;;;;22.29;37.31;101529.59;5076087;28;20028;-88
2021/10/23 08:56:17;;;;;;;6.25;1.08;;;;;;;22.26;37.53;101535.91;5076577;28;20029;-75
2021/10/23 08:58:43;;;;;;;7.18;1.55;;;;;;;21.92;38.06;101521.84;5076937;28;20474;-93
2021/10/23 09:01:11;;;;;;;5.00;1.00;;;;;;;22.39;36.92;101531.75;5075274;28;20028;-81
2021/10/23 09:03:38;;;;;;;3.28;1.30;;;;;;;22.38;36.95;101541.28;5070295;28;20021;-85
2021/10/23 09:06:04;;;;;;;6.50;1.20;;;;;;;22.40;37.10;101538.94;5063157;28;20030;-76
2021/10/23 09:08:29;;;;;;;7.07;1.42;;;;;;;22.39;37.20;101537.31;5068087;28;20356;-74
2021/10/23 09:10:57;;;;;;;3.70;1.38;;;;;;;22.49;36.97;101550.59;5074738;28;20107;-77
2021/10/23 09:13:31;;;;;;;6.45;1.95;;;;;;;22.47;36.87;101543.81;5074840;28;20649;-85
2021/10/23 09:15:58;;;;;;;6.45;1.55;;;;;;;22.63;36.78;101544.44;5073274;28;20029;-77
2021/10/23 09:18:43;;;;;;;4.25;1.15;;;;;;;22.46;37.17;101534.66;5070841;28;20475;-73
2021/10/23 09:21:22;;;;;;;5.70;1.10;;;;;;;22.77;36.66;101527.13;5053366;28;20116;-73
2021/10/23 09:23:52;;;;;;;3.53;1.00;;;;;;;22.76;36.61;101525.53;5059239;28;20033;-77
2021/10/23 09:26:34;;;;;;;2.22;1.10;;;;;;;22.87;36.42;101524.50;5060085;28;20024;-75
2021/10/23 09:29:19;;;;;;;4.68;1.05;;;;;;;22.88;36.65;101528.91;5060493;28;20041;-77
2021/10/23 09:31:46;;;;;;;8.35;1.70;;;;;;;22.92;36.53;101515.03;5063933;28;20074;-76
2021/10/23 09:34:16;;;;;;;3.63;1.00;;;;;;;23.35;36.04;101509.94;5058314;28;20033;-84
2021/10/23 09:36:52;;;;;;;;;;;;;;;23.03;36.57;101515.16;5035735;28;20056;-76
2021/10/23 09:39:34;;;;;;;5.75;1.05;;;;;;;23.14;36.51;101514.09;5040036;28;19916;-82
2021/10/23 09:42:21;;;;;;;11.95;1.50;;;;;;;23.44;35.81;101518.81;5038412;28;20183;-78
2021/10/23 09:45:03;;;;;;;2.38;1.10;;;;;;;23.57;35.58;101519.34;5036991;28;20270;-78
2021/10/23 09:47:40;;;;;;;4.18;0.95;;;;;;;23.73;35.32;101512.38;5036063;28;20106;-79
2021/10/23 09:50:09;;;;;;;2.75;1.13;;;;;;;23.73;35.42;101506.81;5038469;28;21290;-79
2021/10/23 09:52:55;;;;;;;10.05;2.30;;;;;;;23.97;35.15;101499.03;5037374;28;20726;-75
2021/10/23 09:55:20;;;;;;;5.07;0.98;;;;;;;24.09;35.47;101490.34;5038114;28;20040;-76
2021/10/23 09:58:04;;;;;;;9.90;1.88;;;;;;;24.23;34.84;101479.28;5042510;28;20043;-74
2021/10/23 10:00:30;;;;;;;9.45;1.77;;;;;;;24.40;34.80;101480.59;5037625;28;20426;-75
2021/10/23 10:02:57;;;;;;;1.67;0.85;;;;;;;24.46;34.86;101481.03;5049204;28;20217;-82
2021/10/23 10:05:23;;;;;;;6.25;1.30;;;;;;;24.22;34.91;101477.66;5069684;28;20028;-75
2021/10/23 10:07:49;;;;;;;6.63;1.30;;;;;;;24.11;34.87;101476.81;5071077;28;20048;-81
2021/10/23 10:10:14;;;;;;;3.80;0.90;;;;;;;24.16;34.69;101482.00;5062549;28;20375;-75
2021/10/23 10:12:40;;;;;;;4.70;0.82;;;;;;;24.32;34.67;101482.53;5044730;28;20721;-75
2021/10/23 10:15:06;;;;;;;5.28;1.23;;;;;;;24.16;34.95;101475.63;5057194;28;20029;-75
2021/10/23 10:17:33;;;;;;;4.53;1.67;;;;;;;24.36;34.23;101482.59;5056252;28;20024;-75
2021/10/23 10:20:00;;;;;;;4.95;1.33;;;;;;;23.98;34.84;101478.28;5056167;28;20055;-76
2021/10/23 10:22:26;;;;;;;3.72;0.90;;;;;;;23.93;35.03;101493.41;5040646;28;20021;-78
2021/10/23 10:24:51;;;;;;;7.82;1.63;;;;;;;24.12;34.49;101475.63;5052841;28;20129;-75
2021/10/23 10:27:18;;;;;;;5.15;1.58;;;;;;;24.03;34.78;101483.50;5052986;28;20096;-74
2021/10/23 10:29:59;;;;;;;8.00;2.45;;;;;;;24.07;34.49;101490.72;5052610;28;20041;-75
2021/10/23 10:32:37;;;;;;;5.95;1.60;;;;;;;24.24;34.47;101480.88;5051801;28;20025;-75
2021/10/23 10:43:12;;;;;;;8.70;1.83;;;;;;;24.18;34.61;101474.06;5057001;28;20028;-75
2021/10/23 10:45:55;;;;;;;14.60;2.17;;;;;;;23.96;34.78;101461.94;5045589;28;21497;-76
2021/10/23 10:48:25;;;;;;;3.85;0.90;;;;;;;24.10;34.73;101464.00;5057974;28;20024;-75
2021/10/23 10:50:54;;;;;;;5.70;1.13;;;;;;;24.16;34.35;101462.47;5042404;28;20399;-76
2021/10/23 10:53:25;;;;;;;6.72;1.38;;;;;;;24.23;34.70;101473.69;5057343;28;20131;-75
2021/10/23 10:56:04;;;;;;;3.10;1.00;;;;;;;24.31;34.54;101472.53;5055950;28;20487;-75
2021/10/23 10:58:47;;;;;;;3.63;1.75;;;;;;;24.27;34.65;101474.53;5050178;28;20115;-75
2021/10/23 11:01:22;;;;;;;11.00;2.42;;;;;;;24.45;34.21;101477.44;5056470;28;20020;-81
2021/10/23 11:04:06;;;;;;;6.05;1.48;;;;;;;24.38;34.48;101463.44;5046318;28;20071;-76
2021/10/23 11:06:32;;;;;;;8.55;1.63;;;;;;;24.28;34.81;101456.56;5052219;28;20082;-75
2021/10/23 11:09:10;;;;;;;7.35;1.17;;;;;;;24.21;34.71;101455.72;5053782;28;20029;-75
2021/10/23 11:11:45;;;;;;;9.45;1.55;;;;;;;24.03;34.74;101450.00;5056488;28;20035;-75
2021/10/23 11:14:19;;;;;;;3.22;1.23;;;;;;;24.26;34.76;101447.00;5049178;28;20025;-75
2021/10/23 11:17:00;;;;;;;3.95;1.10;;;;;;;24.01;35.36;101447.59;5044178;28;20025;-75
2021/10/23 11:19:28;;;;;;;2.75;1.10;;;;;;;24.38;34.63;101441.09;5037111;28;20111;-76
2021/10/23 11:22:04;;;;;;;4.10;1.30;;;;;;;24.45;34.94;101435.53;5036717;28;20066;-75
2021/10/23 11:24:37;;;;;;;4.97;1.27;;;;;;;24.35;34.99;101434.31;5035741;28;20071;-75
2021/10/23 11:27:02;;;;;;;2.92;1.02;;;;;;;24.57;34.50;101443.59;5056362;28;20059;-75
2021/10/23 11:29:29;;;;;;;6.20;1.63;;;;;;;24.35;34.69;101439.09;5052220;28;20123;-75
2021/10/23 11:31:58;;;;;;;2.58;1.30;;;;;;;24.46;34.76;101428.75;5049841;28;20032;-75
2021/10/23 11:34:35;;;;;;;4.05;1.45;;;;;;;24.56;34.61;101430.00;5043793;28;20450;-75